sensor_id;sensor_type;location;lat;lon;timestamp;pressure;altitude;pressure_sealevel;temperature
69420;BMP280;71621;52.030;113.516;2023-10-08T00:27:18;94439.00;;;3.71
69420;BMP280;71621;52.030;113.516;2023-10-08T00:30:24;94443.97;;;3.77
69420;BMP280;71621;52.030;113.516;2023-10-08T00:33:28;94440.44;;;3.84
69420;BMP280;71621;52.030;113.516;2023-10-08T00:36:33;94439.38;;;3.99
69420;BMP280;71621;52.030;113.516;2023-10-08T00:39:37;94444.06;;;4.10
69420;BMP280;71621;52.030;113.516;2023-10-08T00:42:43;94444.88;;;4.12
69420;BMP280;71621;52.030;113.516;2023-10-08T00:45:49;94451.47;;;4.23
69420;BMP280;71621;52.030;113.516;2023-10-08T00:48:54;94447.84;;;4.40
69420;BMP280;71621;52.030;113.516;2023-10-08T00:51:59;94452.75;;;4.55
69420;BMP280;71621;52.030;113.516;2023-10-08T00:55:04;94457.13;;;4.62
69420;BMP280;71621;52.030;113.516;2023-10-08T00:58:07;94454.16;;;4.68
69420;BMP280;71621;52.030;113.516;2023-10-08T01:01:24;94443.34;;;4.75
69420;BMP280;71621;52.030;113.516;2023-10-08T01:04:28;94445.91;;;4.85
69420;BMP280;71621;52.030;113.516;2023-10-08T01:07:37;94452.03;;;4.99
69420;BMP280;71621;52.030;113.516;2023-10-08T01:10:43;94444.56;;;5.07
69420;BMP280;71621;52.030;113.516;2023-10-08T01:13:46;94452.50;;;5.07
69420;BMP280;71621;52.030;113.516;2023-10-08T01:16:50;94447.09;;;5.05
69420;BMP280;71621;52.030;113.516;2023-10-08T01:19:54;94445.13;;;5.18
69420;BMP280;71621;52.030;113.516;2023-10-08T01:23:10;94441.34;;;5.32
69420;BMP280;71621;52.030;113.516;2023-10-08T01:26:20;94459.22;;;5.55
69420;BMP280;71621;52.030;113.516;2023-10-08T01:29:26;94448.22;;;5.61
69420;BMP280;71621;52.030;113.516;2023-10-08T01:32:32;94442.22;;;5.72
69420;BMP280;71621;52.030;113.516;2023-10-08T01:35:38;94443.63;;;5.73
69420;BMP280;71621;52.030;113.516;2023-10-08T01:38:42;94451.09;;;5.77
69420;BMP280;71621;52.030;113.516;2023-10-08T01:41:45;94447.16;;;5.78
69420;BMP280;71621;52.030;113.516;2023-10-08T01:44:54;94440.47;;;5.88
69420;BMP280;71621;52.030;113.516;2023-10-08T01:47:58;94436.63;;;6.03
69420;BMP280;71621;52.030;113.516;2023-10-08T01:51:03;94443.56;;;6.22
69420;BMP280;71621;52.030;113.516;2023-10-08T01:54:13;94434.28;;;6.34
69420;BMP280;71621;52.030;113.516;2023-10-08T01:57:18;94438.91;;;6.46
69420;BMP280;71621;52.030;113.516;2023-10-08T02:00:21;94430.72;;;6.55
69420;BMP280;71621;52.030;113.516;2023-10-08T02:03:26;94437.25;;;6.66
69420;BMP280;71621;52.030;113.516;2023-10-08T02:06:33;94435.34;;;6.80
69420;BMP280;71621;52.030;113.516;2023-10-08T02:09:38;94423.03;;;6.87
69420;BMP280;71621;52.030;113.516;2023-10-08T02:12:41;94415.38;;;6.93
69420;BMP280;71621;52.030;113.516;2023-10-08T02:15:49;94418.34;;;7.13
69420;BMP280;71621;52.030;113.516;2023-10-08T02:18:54;94415.00;;;7.26
69420;BMP280;71621;52.030;113.516;2023-10-08T02:21:59;94412.13;;;7.36
69420;BMP280;71621;52.030;113.516;2023-10-08T02:25:02;94407.97;;;7.46
69420;BMP280;71621;52.030;113.516;2023-10-08T02:28:10;94413.13;;;7.56
69420;BMP280;71621;52.030;113.516;2023-10-08T02:31:18;94406.13;;;7.62
69420;BMP280;71621;52.030;113.516;2023-10-08T02:34:22;94408.06;;;7.76
69420;BMP280;71621;52.030;113.516;2023-10-08T02:37:25;94394.03;;;7.89
69420;BMP280;71621;52.030;113.516;2023-10-08T02:40:29;94400.00;;;8.03
69420;BMP280;71621;52.030;113.516;2023-10-08T02:43:33;94394.44;;;8.13
69420;BMP280;71621;52.030;113.516;2023-10-08T02:46:44;94394.19;;;8.22
69420;BMP280;71621;52.030;113.516;2023-10-08T02:49:50;94386.47;;;8.28
69420;BMP280;71621;52.030;113.516;2023-10-08T02:52:55;94385.53;;;8.38
69420;BMP280;71621;52.030;113.516;2023-10-08T02:56:05;94385.28;;;8.47
69420;BMP280;71621;52.030;113.516;2023-10-08T02:59:16;94381.00;;;8.56
69420;BMP280;71621;52.030;113.516;2023-10-08T03:02:19;94378.16;;;8.68
69420;BMP280;71621;52.030;113.516;2023-10-08T03:05:24;94379.38;;;8.80
69420;BMP280;71621;52.030;113.516;2023-10-08T03:08:32;94371.09;;;8.90
69420;BMP280;71621;52.030;113.516;2023-10-08T03:11:39;94372.22;;;9.01
69420;BMP280;71621;52.030;113.516;2023-10-08T03:14:50;94368.22;;;9.17
69420;BMP280;71621;52.030;113.516;2023-10-08T03:18:14;94370.69;;;9.29
69420;BMP280;71621;52.030;113.516;2023-10-08T03:21:18;94367.13;;;9.40
69420;BMP280;71621;52.030;113.516;2023-10-08T03:24:26;94364.84;;;9.50
69420;BMP280;71621;52.030;113.516;2023-10-08T03:27:40;94359.84;;;9.58
69420;BMP280;71621;52.030;113.516;2023-10-08T03:30:45;94356.78;;;9.66
69420;BMP280;71621;52.030;113.516;2023-10-08T03:33:54;94365.94;;;9.79
69420;BMP280;71621;52.030;113.516;2023-10-08T03:36:59;94361.06;;;9.91
69420;BMP280;71621;52.030;113.516;2023-10-08T03:40:11;94365.47;;;10.02
69420;BMP280;71621;52.030;113.516;2023-10-08T03:43:27;94354.97;;;10.08
69420;BMP280;71621;52.030;113.516;2023-10-08T03:46:38;94361.91;;;10.15
69420;BMP280;71621;52.030;113.516;2023-10-08T03:49:47;94357.63;;;10.26
69420;BMP280;71621;52.030;113.516;2023-10-08T03:52:53;94357.31;;;10.36
69420;BMP280;71621;52.030;113.516;2023-10-08T03:55:58;94356.97;;;10.45
69420;BMP280;71621;52.030;113.516;2023-10-08T03:59:05;94355.22;;;10.52
69420;BMP280;71621;52.030;113.516;2023-10-08T04:02:31;94343.47;;;10.61
69420;BMP280;71621;52.030;113.516;2023-10-08T04:05:44;94345.09;;;10.70
69420;BMP280;71621;52.030;113.516;2023-10-08T04:09:08;94334.13;;;10.82
69420;BMP280;71621;52.030;113.516;2023-10-08T04:12:12;94340.28;;;10.86
69420;BMP280;71621;52.030;113.516;2023-10-08T04:15:21;94336.47;;;10.91
69420;BMP280;71621;52.030;113.516;2023-10-08T04:18:25;94327.25;;;10.97
69420;BMP280;71621;52.030;113.516;2023-10-08T04:21:30;94323.66;;;11.10
69420;BMP280;71621;52.030;113.516;2023-10-08T04:24:36;94320.16;;;11.25
69420;BMP280;71621;52.030;113.516;2023-10-08T04:27:40;94312.47;;;11.37
69420;BMP280;71621;52.030;113.516;2023-10-08T04:30:43;94309.28;;;11.43
69420;BMP280;71621;52.030;113.516;2023-10-08T04:33:48;94309.59;;;11.53
69420;BMP280;71621;52.030;113.516;2023-10-08T04:36:54;94307.72;;;11.57
69420;BMP280;71621;52.030;113.516;2023-10-08T04:39:57;94310.03;;;11.67
69420;BMP280;71621;52.030;113.516;2023-10-08T04:43:02;94301.66;;;11.79
69420;BMP280;71621;52.030;113.516;2023-10-08T04:46:06;94295.84;;;11.86
69420;BMP280;71621;52.030;113.516;2023-10-08T04:49:30;94297.78;;;11.84
69420;BMP280;71621;52.030;113.516;2023-10-08T04:52:35;94292.00;;;11.93
69420;BMP280;71621;52.030;113.516;2023-10-08T04:55:48;94295.53;;;12.00
69420;BMP280;71621;52.030;113.516;2023-10-08T04:58:52;94289.56;;;12.02
69420;BMP280;71621;52.030;113.516;2023-10-08T05:01:55;94291.78;;;12.09
69420;BMP280;71621;52.030;113.516;2023-10-08T05:05:22;94279.84;;;12.14
69420;BMP280;71621;52.030;113.516;2023-10-08T05:08:26;94273.31;;;12.19
69420;BMP280;71621;52.030;113.516;2023-10-08T05:11:42;94261.25;;;12.20
69420;BMP280;71621;52.030;113.516;2023-10-08T05:14:54;94272.81;;;12.27
69420;BMP280;71621;52.030;113.516;2023-10-08T05:18:17;94268.31;;;12.36
69420;BMP280;71621;52.030;113.516;2023-10-08T05:21:20;94263.19;;;12.44
69420;BMP280;71621;52.030;113.516;2023-10-08T05:24:37;94259.97;;;12.49
69420;BMP280;71621;52.030;113.516;2023-10-08T05:27:43;94263.59;;;12.60
69420;BMP280;71621;52.030;113.516;2023-10-08T05:30:53;94250.31;;;12.66
69420;BMP280;71621;52.030;113.516;2023-10-08T05:33:58;94255.22;;;12.74
69420;BMP280;71621;52.030;113.516;2023-10-08T05:37:21;94256.22;;;12.88
69420;BMP280;71621;52.030;113.516;2023-10-08T05:40:45;94248.34;;;12.96
69420;BMP280;71621;52.030;113.516;2023-10-08T05:44:03;94245.84;;;13.03
69420;BMP280;71621;52.030;113.516;2023-10-08T05:47:22;94237.84;;;13.07
69420;BMP280;71621;52.030;113.516;2023-10-08T05:50:35;94231.88;;;13.10
69420;BMP280;71621;52.030;113.516;2023-10-08T05:53:42;94231.56;;;13.26
69420;BMP280;71621;52.030;113.516;2023-10-08T05:56:46;94229.06;;;13.36
69420;BMP280;71621;52.030;113.516;2023-10-08T06:00:09;94221.88;;;13.45
69420;BMP280;71621;52.030;113.516;2023-10-08T06:03:19;94226.03;;;13.52
69420;BMP280;71621;52.030;113.516;2023-10-08T06:06:36;94232.19;;;13.56
69420;BMP280;71621;52.030;113.516;2023-10-08T06:09:40;94215.47;;;13.60
69420;BMP280;71621;52.030;113.516;2023-10-08T06:12:53;94218.34;;;13.70
69420;BMP280;71621;52.030;113.516;2023-10-08T06:16:05;94222.53;;;13.77
69420;BMP280;71621;52.030;113.516;2023-10-08T06:19:12;94220.00;;;13.85
69420;BMP280;71621;52.030;113.516;2023-10-08T06:22:16;94220.78;;;13.94
69420;BMP280;71621;52.030;113.516;2023-10-08T06:25:20;94207.34;;;13.92
69420;BMP280;71621;52.030;113.516;2023-10-08T06:28:26;94214.84;;;13.97
69420;BMP280;71621;52.030;113.516;2023-10-08T06:31:30;94209.00;;;14.09
69420;BMP280;71621;52.030;113.516;2023-10-08T06:34:38;94215.97;;;14.24
69420;BMP280;71621;52.030;113.516;2023-10-08T06:37:46;94203.44;;;14.39
69420;BMP280;71621;52.030;113.516;2023-10-08T06:41:05;94202.13;;;14.42
69420;BMP280;71621;52.030;113.516;2023-10-08T06:44:49;94190.16;;;14.47
69420;BMP280;71621;52.030;113.516;2023-10-08T06:47:53;94197.59;;;14.51
69420;BMP280;71621;52.030;113.516;2023-10-08T06:51:01;94201.00;;;14.53
69420;BMP280;71621;52.030;113.516;2023-10-08T06:54:10;94196.25;;;14.54
69420;BMP280;71621;52.030;113.516;2023-10-08T06:57:17;94193.03;;;14.59
69420;BMP280;71621;52.030;113.516;2023-10-08T07:00:23;94195.06;;;14.63
69420;BMP280;71621;52.030;113.516;2023-10-08T07:03:41;94197.88;;;14.69
69420;BMP280;71621;52.030;113.516;2023-10-08T07:06:45;94193.75;;;14.66
69420;BMP280;71621;52.030;113.516;2023-10-08T07:09:54;94185.00;;;14.65
69420;BMP280;71621;52.030;113.516;2023-10-08T07:12:59;94186.53;;;14.77
69420;BMP280;71621;52.030;113.516;2023-10-08T07:16:06;94194.13;;;14.88
69420;BMP280;71621;52.030;113.516;2023-10-08T07:19:14;94190.13;;;14.93
69420;BMP280;71621;52.030;113.516;2023-10-08T07:22:22;94184.19;;;15.01
69420;BMP280;71621;52.030;113.516;2023-10-08T07:25:26;94192.28;;;15.03
69420;BMP280;71621;52.030;113.516;2023-10-08T07:28:40;94182.22;;;15.07
69420;BMP280;71621;52.030;113.516;2023-10-08T07:31:45;94189.72;;;15.11
69420;BMP280;71621;52.030;113.516;2023-10-08T07:34:52;94180.28;;;15.10
69420;BMP280;71621;52.030;113.516;2023-10-08T07:38:06;94179.66;;;15.16
69420;BMP280;71621;52.030;113.516;2023-10-08T07:41:13;94187.81;;;15.24
69420;BMP280;71621;52.030;113.516;2023-10-08T07:44:17;94186.53;;;15.27
69420;BMP280;71621;52.030;113.516;2023-10-08T07:47:24;94185.88;;;15.28
69420;BMP280;71621;52.030;113.516;2023-10-08T07:50:29;94177.13;;;15.28
69420;BMP280;71621;52.030;113.516;2023-10-08T07:53:33;94186.56;;;15.29
69420;BMP280;71621;52.030;113.516;2023-10-08T07:56:47;94183.16;;;15.26
69420;BMP280;71621;52.030;113.516;2023-10-08T07:59:51;94189.88;;;15.25
69420;BMP280;71621;52.030;113.516;2023-10-08T08:02:57;94180.47;;;15.26
69420;BMP280;71621;52.030;113.516;2023-10-08T08:06:02;94175.81;;;15.31
69420;BMP280;71621;52.030;113.516;2023-10-08T08:09:09;94174.44;;;15.30
69420;BMP280;71621;52.030;113.516;2023-10-08T08:12:21;94176.53;;;15.35
69420;BMP280;71621;52.030;113.516;2023-10-08T08:15:25;94171.91;;;15.40
69420;BMP280;71621;52.030;113.516;2023-10-08T08:18:31;94177.28;;;15.42
69420;BMP280;71621;52.030;113.516;2023-10-08T08:21:36;94175.19;;;15.34
69420;BMP280;71621;52.030;113.516;2023-10-08T08:24:39;94172.47;;;15.32
69420;BMP280;71621;52.030;113.516;2023-10-08T08:27:48;94175.13;;;15.30
69420;BMP280;71621;52.030;113.516;2023-10-08T08:30:52;94173.78;;;15.29
69420;BMP280;71621;52.030;113.516;2023-10-08T08:33:55;94173.06;;;15.27
69420;BMP280;71621;52.030;113.516;2023-10-08T08:37:20;94175.63;;;15.19
69420;BMP280;71621;52.030;113.516;2023-10-08T08:40:25;94176.84;;;15.07
69420;BMP280;71621;52.030;113.516;2023-10-08T08:43:30;94180.16;;;15.00
69420;BMP280;71621;52.030;113.516;2023-10-08T08:46:37;94188.88;;;15.00
69420;BMP280;71621;52.030;113.516;2023-10-08T08:49:46;94178.69;;;14.95
69420;BMP280;71621;52.030;113.516;2023-10-08T08:52:50;94173.88;;;14.85
69420;BMP280;71621;52.030;113.516;2023-10-08T08:55:55;94184.63;;;14.85
69420;BMP280;71621;52.030;113.516;2023-10-08T08:59:00;94180.59;;;14.86
69420;BMP280;71621;52.030;113.516;2023-10-08T09:02:04;94183.19;;;14.78
69420;BMP280;71621;52.030;113.516;2023-10-08T09:05:11;94178.38;;;14.70
69420;BMP280;71621;52.030;113.516;2023-10-08T09:08:37;94181.09;;;14.72
69420;BMP280;71621;52.030;113.516;2023-10-08T09:11:40;94171.66;;;14.71
69420;BMP280;71621;52.030;113.516;2023-10-08T09:14:46;94187.06;;;14.67
69420;BMP280;71621;52.030;113.516;2023-10-08T09:17:49;94178.25;;;14.62
69420;BMP280;71621;52.030;113.516;2023-10-08T09:20:54;94180.22;;;14.60
69420;BMP280;71621;52.030;113.516;2023-10-08T09:23:58;94184.13;;;14.51
69420;BMP280;71621;52.030;113.516;2023-10-08T09:27:20;94183.31;;;14.40
69420;BMP280;71621;52.030;113.516;2023-10-08T09:30:24;94193.81;;;14.26
69420;BMP280;71621;52.030;113.516;2023-10-08T09:33:28;94202.50;;;14.22
69420;BMP280;71621;52.030;113.516;2023-10-08T09:36:32;94205.00;;;14.12
69420;BMP280;71621;52.030;113.516;2023-10-08T09:39:37;94205.00;;;14.12
69420;BMP280;71621;52.030;113.516;2023-10-08T09:42:42;94203.59;;;14.07
69420;BMP280;71621;52.030;113.516;2023-10-08T09:45:55;94204.25;;;14.08
69420;BMP280;71621;52.030;113.516;2023-10-08T09:49:05;94204.78;;;14.00
69420;BMP280;71621;52.030;113.516;2023-10-08T09:52:11;94218.72;;;13.90
69420;BMP280;71621;52.030;113.516;2023-10-08T09:55:17;94217.25;;;13.83
69420;BMP280;71621;52.030;113.516;2023-10-08T09:58:26;94222.44;;;13.73
69420;BMP280;71621;52.030;113.516;2023-10-08T10:01:30;94221.44;;;13.56
69420;BMP280;71621;52.030;113.516;2023-10-08T10:04:43;94225.31;;;13.49
69420;BMP280;71621;52.030;113.516;2023-10-08T10:07:48;94229.06;;;13.36
69420;BMP280;71621;52.030;113.516;2023-10-08T10:10:58;94220.78;;;13.24
69420;BMP280;71621;52.030;113.516;2023-10-08T10:14:03;94233.25;;;13.11
69420;BMP280;71621;52.030;113.516;2023-10-08T10:20:26;94231.34;;;12.86
69420;BMP280;71621;52.030;113.516;2023-10-08T10:26:48;94235.47;;;12.61
69420;BMP280;71621;52.030;113.516;2023-10-08T10:30:04;94248.72;;;12.55
69420;BMP280;71621;52.030;113.516;2023-10-08T10:33:11;94245.53;;;12.35
69420;BMP280;71621;52.030;113.516;2023-10-08T10:36:15;94259.47;;;12.29
69420;BMP280;71621;52.030;113.516;2023-10-08T10:39:21;94259.13;;;12.17
69420;BMP280;71621;52.030;113.516;2023-10-08T10:42:34;94264.31;;;12.09
69420;BMP280;71621;52.030;113.516;2023-10-08T10:45:46;94261.84;;;11.93
69420;BMP280;71621;52.030;113.516;2023-10-08T10:48:50;94261.34;;;11.75
69420;BMP280;71621;52.030;113.516;2023-10-08T10:52:11;94263.06;;;11.64
69420;BMP280;71621;52.030;113.516;2023-10-08T10:55:20;94267.50;;;11.55
69420;BMP280;71621;52.030;113.516;2023-10-08T10:58:26;94276.53;;;11.44
69420;BMP280;71621;52.030;113.516;2023-10-08T11:01:31;94274.88;;;11.33
69420;BMP280;71621;52.030;113.516;2023-10-08T11:04:47;94272.47;;;11.19
69420;BMP280;71621;52.030;113.516;2023-10-08T11:07:51;94282.19;;;11.09
69420;BMP280;71621;52.030;113.516;2023-10-08T11:10:57;94289.19;;;10.98
69420;BMP280;71621;52.030;113.516;2023-10-08T11:14:03;94284.09;;;10.84
69420;BMP280;71621;52.030;113.516;2023-10-08T11:17:18;94281.19;;;10.78
69420;BMP280;71621;52.030;113.516;2023-10-08T11:20:28;94294.06;;;10.62
69420;BMP280;71621;52.030;113.516;2023-10-08T11:23:35;94290.41;;;10.53
69420;BMP280;71621;52.030;113.516;2023-10-08T11:26:39;94290.63;;;10.40
69420;BMP280;71621;52.030;113.516;2023-10-08T11:29:58;94293.09;;;10.34
69420;BMP280;71621;52.030;113.516;2023-10-08T11:33:03;94298.03;;;10.21
69420;BMP280;71621;52.030;113.516;2023-10-08T11:36:10;94293.75;;;10.14
69420;BMP280;71621;52.030;113.516;2023-10-08T11:39:22;94285.97;;;10.01
69420;BMP280;71621;52.030;113.516;2023-10-08T11:42:26;94303.72;;;9.94
69420;BMP280;71621;52.030;113.516;2023-10-08T11:45:36;94298.03;;;9.84
69420;BMP280;71621;52.030;113.516;2023-10-08T11:48:42;94307.72;;;9.75
69420;BMP280;71621;52.030;113.516;2023-10-08T11:51:49;94313.97;;;9.64
69420;BMP280;71621;52.030;113.516;2023-10-08T11:54:55;94306.97;;;9.55
69420;BMP280;71621;52.030;113.516;2023-10-08T11:57:59;94315.28;;;9.45
69420;BMP280;71621;52.030;113.516;2023-10-08T12:01:03;94316.94;;;9.37
69420;BMP280;71621;52.030;113.516;2023-10-08T12:04:07;94321.91;;;9.27
69420;BMP280;71621;52.030;113.516;2023-10-08T12:07:16;94322.41;;;9.23
69420;BMP280;71621;52.030;113.516;2023-10-08T12:10:20;94322.28;;;9.19
69420;BMP280;71621;52.030;113.516;2023-10-08T12:13:27;94327.28;;;9.11
69420;BMP280;71621;52.030;113.516;2023-10-08T12:16:31;94327.91;;;9.09
69420;BMP280;71621;52.030;113.516;2023-10-08T12:19:38;94334.28;;;9.02
69420;BMP280;71621;52.030;113.516;2023-10-08T12:22:46;94333.88;;;8.92
69420;BMP280;71621;52.030;113.516;2023-10-08T12:25:54;94337.75;;;8.89
69420;BMP280;71621;52.030;113.516;2023-10-08T12:29:02;94338.78;;;8.82
69420;BMP280;71621;52.030;113.516;2023-10-08T12:32:06;94349.34;;;8.80
69420;BMP280;71621;52.030;113.516;2023-10-08T12:35:20;94334.66;;;8.63
69420;BMP280;71621;52.030;113.516;2023-10-08T12:38:27;94354.63;;;8.62
69420;BMP280;71621;52.030;113.516;2023-10-08T12:41:31;94351.59;;;8.54
69420;BMP280;71621;52.030;113.516;2023-10-08T12:44:35;94358.13;;;8.51
69420;BMP280;71621;52.030;113.516;2023-10-08T12:47:39;94351.78;;;8.42
69420;BMP280;71621;52.030;113.516;2023-10-08T12:50:45;94354.94;;;8.39
69420;BMP280;71621;52.030;113.516;2023-10-08T12:53:56;94358.56;;;8.30
69420;BMP280;71621;52.030;113.516;2023-10-08T12:57:07;94359.66;;;8.24
69420;BMP280;71621;52.030;113.516;2023-10-08T13:00:12;94359.31;;;8.16
69420;BMP280;71621;52.030;113.516;2023-10-08T13:03:16;94351.47;;;8.05
69420;BMP280;71621;52.030;113.516;2023-10-08T13:06:27;94360.66;;;8.02
69420;BMP280;71621;52.030;113.516;2023-10-08T13:09:31;94369.16;;;7.98
69420;BMP280;71621;52.030;113.516;2023-10-08T13:12:34;94369.19;;;7.84
69420;BMP280;71621;52.030;113.516;2023-10-08T13:15:41;94361.22;;;7.84
69420;BMP280;71621;52.030;113.516;2023-10-08T13:18:48;94370.38;;;7.81
69420;BMP280;71621;52.030;113.516;2023-10-08T13:21:52;94371.91;;;7.71
69420;BMP280;71621;52.030;113.516;2023-10-08T13:24:56;94367.59;;;7.63
69420;BMP280;71621;52.030;113.516;2023-10-08T13:28:00;94379.97;;;7.59
69420;BMP280;71621;52.030;113.516;2023-10-08T13:31:04;94379.03;;;7.52
69420;BMP280;71621;52.030;113.516;2023-10-08T13:34:13;94380.19;;;7.49
69420;BMP280;71621;52.030;113.516;2023-10-08T13:37:19;94385.34;;;7.45
69420;BMP280;71621;52.030;113.516;2023-10-08T13:40:22;94383.34;;;7.46
69420;BMP280;71621;52.030;113.516;2023-10-08T13:43:36;94388.69;;;7.46
69420;BMP280;71621;52.030;113.516;2023-10-08T13:46:39;94394.78;;;7.35
69420;BMP280;71621;52.030;113.516;2023-10-08T13:49:46;94389.78;;;7.27
69420;BMP280;71621;52.030;113.516;2023-10-08T13:52:53;94397.56;;;7.23
69420;BMP280;71621;52.030;113.516;2023-10-08T13:55:58;94398.56;;;7.16
69420;BMP280;71621;52.030;113.516;2023-10-08T13:59:04;94389.63;;;7.09
69420;BMP280;71621;52.030;113.516;2023-10-08T14:02:17;94402.09;;;7.07
69420;BMP280;71621;52.030;113.516;2023-10-08T14:05:24;94404.56;;;7.03
69420;BMP280;71621;52.030;113.516;2023-10-08T14:08:29;94405.16;;;7.01
69420;BMP280;71621;52.030;113.516;2023-10-08T14:11:33;94410.47;;;7.01
69420;BMP280;71621;52.030;113.516;2023-10-08T14:14:37;94411.94;;;6.90
69420;BMP280;71621;52.030;113.516;2023-10-08T14:17:47;94409.75;;;6.87
69420;BMP280;71621;52.030;113.516;2023-10-08T14:20:56;94411.53;;;6.82
69420;BMP280;71621;52.030;113.516;2023-10-08T14:24:00;94414.88;;;6.83
69420;BMP280;71621;52.030;113.516;2023-10-08T14:27:06;94419.81;;;6.88
69420;BMP280;71621;52.030;113.516;2023-10-08T14:30:13;94409.75;;;6.87
69420;BMP280;71621;52.030;113.516;2023-10-08T14:33:24;94416.94;;;6.84
69420;BMP280;71621;52.030;113.516;2023-10-08T14:36:30;94409.72;;;6.73
69420;BMP280;71621;52.030;113.516;2023-10-08T14:39:52;94421.03;;;6.74
69420;BMP280;71621;52.030;113.516;2023-10-08T14:43:14;94434.13;;;6.70
69420;BMP280;71621;52.030;113.516;2023-10-08T14:46:19;94419.94;;;6.65
69420;BMP280;71621;52.030;113.516;2023-10-08T14:49:23;94434.28;;;6.60
69420;BMP280;71621;52.030;113.516;2023-10-08T14:52:28;94435.25;;;6.53
69420;BMP280;71621;52.030;113.516;2023-10-08T14:55:35;94433.88;;;6.52
69420;BMP280;71621;52.030;113.516;2023-10-08T14:58:40;94426.78;;;6.43
69420;BMP280;71621;52.030;113.516;2023-10-08T15:01:44;94442.69;;;6.43
69420;BMP280;71621;52.030;113.516;2023-10-08T15:04:50;94447.13;;;6.38
69420;BMP280;71621;52.030;113.516;2023-10-08T15:07:53;94442.16;;;6.32
69420;BMP280;71621;52.030;113.516;2023-10-08T15:10:58;94436.53;;;6.26
69420;BMP280;71621;52.030;113.516;2023-10-08T15:14:02;94436.78;;;6.19
69420;BMP280;71621;52.030;113.516;2023-10-08T15:17:12;94448.44;;;6.25
69420;BMP280;71621;52.030;113.516;2023-10-08T15:20:16;94454.78;;;6.20
69420;BMP280;71621;52.030;113.516;2023-10-08T15:23:23;94449.63;;;6.11
69420;BMP280;71621;52.030;113.516;2023-10-08T15:26:30;94452.28;;;6.11
69420;BMP280;71621;52.030;113.516;2023-10-08T15:29:34;94451.97;;;6.04
69420;BMP280;71621;52.030;113.516;2023-10-08T15:32:42;94460.59;;;6.05
69420;BMP280;71621;52.030;113.516;2023-10-08T15:35:47;94464.09;;;5.96
69420;BMP280;71621;52.030;113.516;2023-10-08T15:38:50;94467.34;;;5.94
69420;BMP280;71621;52.030;113.516;2023-10-08T15:41:54;94459.81;;;5.91
69420;BMP280;71621;52.030;113.516;2023-10-08T15:44:58;94467.69;;;5.89
69420;BMP280;71621;52.030;113.516;2023-10-08T15:48:02;94462.28;;;5.87
69420;BMP280;71621;52.030;113.516;2023-10-08T15:51:08;94467.34;;;5.83
69420;BMP280;71621;52.030;113.516;2023-10-08T15:54:12;94459.63;;;5.75
69420;BMP280;71621;52.030;113.516;2023-10-08T15:57:16;94477.97;;;5.71
69420;BMP280;71621;52.030;113.516;2023-10-08T16:00:20;94471.19;;;5.68
69420;BMP280;71621;52.030;113.516;2023-10-08T16:03:24;94467.03;;;5.65
69420;BMP280;71621;52.030;113.516;2023-10-08T16:06:27;94473.34;;;5.60
69420;BMP280;71621;52.030;113.516;2023-10-08T16:09:31;94470.00;;;5.59
69420;BMP280;71621;52.030;113.516;2023-10-08T16:12:35;94477.31;;;5.59
69420;BMP280;71621;52.030;113.516;2023-10-08T16:15:40;94477.78;;;5.55
69420;BMP280;71621;52.030;113.516;2023-10-08T16:18:43;94484.09;;;5.50
69420;BMP280;71621;52.030;113.516;2023-10-08T16:21:47;94484.44;;;5.45
69420;BMP280;71621;52.030;113.516;2023-10-08T16:24:51;94483.09;;;5.44
69420;BMP280;71621;52.030;113.516;2023-10-08T16:27:54;94483.28;;;5.36
69420;BMP280;71621;52.030;113.516;2023-10-08T16:30:58;94483.63;;;5.30
69420;BMP280;71621;52.030;113.516;2023-10-08T16:34:02;94488.38;;;5.32
69420;BMP280;71621;52.030;113.516;2023-10-08T16:37:05;94488.13;;;5.28
69420;BMP280;71621;52.030;113.516;2023-10-08T16:40:10;94497.13;;;5.23
69420;BMP280;71621;52.030;113.516;2023-10-08T16:43:14;94499.97;;;5.15
69420;BMP280;71621;52.030;113.516;2023-10-08T16:46:19;94499.28;;;5.15
69420;BMP280;71621;52.030;113.516;2023-10-08T16:49:22;94501.13;;;5.12
69420;BMP280;71621;52.030;113.516;2023-10-08T16:52:29;94493.41;;;5.04
69420;BMP280;71621;52.030;113.516;2023-10-08T16:55:33;94512.06;;;5.06
69420;BMP280;71621;52.030;113.516;2023-10-08T16:58:37;94505.25;;;5.03
69420;BMP280;71621;52.030;113.516;2023-10-08T17:01:41;94499.50;;;5.07
69420;BMP280;71621;52.030;113.516;2023-10-08T17:04:46;94499.97;;;5.03
69420;BMP280;71621;52.030;113.516;2023-10-08T17:07:49;94504.47;;;5.01
69420;BMP280;71621;52.030;113.516;2023-10-08T17:10:55;94496.06;;;5.04
69420;BMP280;71621;52.030;113.516;2023-10-08T17:13:58;94507.47;;;5.07
69420;BMP280;71621;52.030;113.516;2023-10-08T17:17:03;94511.25;;;5.04
69420;BMP280;71621;52.030;113.516;2023-10-08T17:20:09;94513.66;;;5.00
69420;BMP280;71621;52.030;113.516;2023-10-08T17:23:13;94512.16;;;4.97
69420;BMP280;71621;52.030;113.516;2023-10-08T17:26:17;94516.75;;;4.96
69420;BMP280;71621;52.030;113.516;2023-10-08T17:29:22;94512.94;;;4.88
69420;BMP280;71621;52.030;113.516;2023-10-08T17:32:25;94522.78;;;4.75
69420;BMP280;71621;52.030;113.516;2023-10-08T17:35:29;94521.88;;;4.71
69420;BMP280;71621;52.030;113.516;2023-10-08T17:38:32;94518.28;;;4.66
69420;BMP280;71621;52.030;113.516;2023-10-08T17:41:36;94526.09;;;4.64
69420;BMP280;71621;52.030;113.516;2023-10-08T17:44:39;94524.94;;;4.67
69420;BMP280;71621;52.030;113.516;2023-10-08T17:47:43;94522.38;;;4.58
69420;BMP280;71621;52.030;113.516;2023-10-08T17:50:47;94526.88;;;4.55
69420;BMP280;71621;52.030;113.516;2023-10-08T17:53:51;94532.97;;;4.58
69420;BMP280;71621;52.030;113.516;2023-10-08T17:56:55;94532.50;;;4.50
69420;BMP280;71621;52.030;113.516;2023-10-08T17:59:59;94537.22;;;4.51
69420;BMP280;71621;52.030;113.516;2023-10-08T18:03:12;94548.22;;;4.47
69420;BMP280;71621;52.030;113.516;2023-10-08T18:06:16;94550.50;;;4.41
69420;BMP280;71621;52.030;113.516;2023-10-08T18:09:22;94557.75;;;4.41